Time;durP1;ratioP1;P1;durP2;ratioP2;P2;SDS_P1;SDS_P2;PMS_P1;PMS_P2;Temp;Humidity;BMP_temperature;BMP_pressure;BME280_temperature;BME280_humidity;BME280_pressure;Samples;Min_cycle;Max_cycle;Signal;HPM_P1;HPM_P2
2023/10/23 00:00:46;;;;;;;1.10;0.90;;;;;;;17.32;68.28;100939.75;4947513;28;96795;-78
2023/10/23 00:03:13;;;;;;;1.33;0.75;;;;;;;17.41;68.15;100941.84;4949567;28;96790;-78
2023/10/23 00:05:39;;;;;;;3.25;0.90;;;;;;;17.25;68.84;100938.41;4952766;28;98536;-78
2023/10/23 00:08:06;;;;;;;0.95;0.60;;;;;;;17.14;68.99;100929.19;4951298;28;98894;-78
2023/10/23 00:10:33;;;;;;;2.10;0.95;;;;;;;17.25;68.87;100938.41;4954976;28;98194;-78
2023/10/23 00:13:00;;;;;;;1.75;0.63;;;;;;;17.32;68.48;100947.75;4952951;28;100222;-78
2023/10/23 00:15:26;;;;;;;3.53;1.00;;;;;;;17.26;68.75;100946.31;4949663;28;101293;-78
2023/10/23 00:17:53;;;;;;;3.15;0.70;;;;;;;16.86;70.30;100944.28;4950426;28;97635;-78
2023/10/23 00:20:19;;;;;;;3.80;0.98;;;;;;;16.91;69.98;100951.06;4950033;28;97270;-77
2023/10/23 00:22:46;;;;;;;3.35;0.82;;;;;;;16.98;70.19;100952.44;4951349;28;98121;-78
2023/10/23 00:25:12;;;;;;;3.05;0.80;;;;;;;16.80;70.94;100952.66;4947884;28;99092;-78
2023/10/23 00:27:40;;;;;;;1.63;0.77;;;;;;;16.61;71.32;100945.69;4950419;28;99180;-79
2023/10/23 00:30:07;;;;;;;2.47;1.17;;;;;;;16.57;71.85;100941.44;4950093;28;96965;-79
2023/10/23 00:32:34;;;;;;;2.42;0.80;;;;;;;16.65;71.66;100955.25;4946330;28;97696;-78
2023/10/23 00:35:00;;;;;;;2.42;0.70;;;;;;;16.41;72.32;100951.25;4958895;28;97754;-77
2023/10/23 00:37:27;;;;;;;1.50;0.68;;;;;;;16.73;71.31;100953.00;4952853;28;99201;-78
2023/10/23 00:39:53;;;;;;;1.00;0.70;;;;;;;16.80;71.11;100961.53;4953885;28;96713;-78
2023/10/23 00:42:19;;;;;;;5.47;0.82;;;;;;;16.61;71.85;100947.47;4952517;28;96802;-78
2023/10/23 00:44:47;;;;;;;4.10;1.00;;;;;;;16.82;71.01;100950.72;4951136;28;99358;-78
2023/10/23 00:47:16;;;;;;;2.78;0.70;;;;;;;16.77;71.37;100953.69;4952697;28;99261;-78
2023/10/23 00:49:44;;;;;;;2.47;0.98;;;;;;;16.39;72.34;100955.84;4953472;28;96913;-78
2023/10/23 00:52:10;;;;;;;1.77;0.70;;;;;;;16.73;71.51;100950.34;4952278;28;96821;-78
2023/10/23 00:54:39;;;;;;;3.75;1.10;;;;;;;16.49;72.53;100948.16;4958248;28;99350;-78
2023/10/23 00:57:05;;;;;;;4.30;1.00;;;;;;;16.56;72.04;100955.72;4951840;28;98820;-78
2023/10/23 00:59:32;;;;;;;3.33;0.70;;;;;;;16.43;72.28;100949.38;4948908;28;97367;-78
2023/10/23 01:02:00;;;;;;;2.05;0.85;;;;;;;16.28;72.97;100952.88;4951963;28;98046;-78
2023/10/23 01:04:27;;;;;;;3.53;0.77;;;;;;;16.36;73.07;100950.66;4947315;28;98859;-78
2023/10/23 01:06:53;;;;;;;1.65;0.95;;;;;;;16.20;73.58;100958.66;4950490;28;99706;-78
2023/10/23 01:09:20;;;;;;;1.80;0.80;;;;;;;16.40;73.08;100962.03;4943097;28;96872;-77
2023/10/23 01:11:46;;;;;;;2.60;0.85;;;;;;;16.21;73.02;100965.69;4949948;28;97078;-78
2023/10/23 01:14:13;;;;;;;4.68;0.68;;;;;;;16.41;72.59;100966.41;4947624;28;97630;-78
2023/10/23 01:16:39;;;;;;;7.00;0.88;;;;;;;16.33;73.06;100959.72;4951750;28;99245;-78
2023/10/23 01:19:07;;;;;;;1.63;0.73;;;;;;;16.32;73.24;100962.44;4953633;28;97261;-78
2023/10/23 01:21:33;;;;;;;3.55;0.80;;;;;;;16.25;73.45;100959.28;4949667;28;96817;-78
2023/10/23 01:24:00;;;;;;;4.68;0.90;;;;;;;16.28;73.39;100964.41;4952399;28;102279;-78
2023/10/23 01:26:28;;;;;;;2.17;0.80;;;;;;;16.25;73.43;100969.06;4952704;28;98904;-78
2023/10/23 01:28:54;;;;;;;3.42;0.93;;;;;;;16.21;73.19;100964.88;4949486;28;96809;-78
2023/10/23 01:31:21;;;;;;;4.80;1.08;;;;;;;15.94;74.15;100970.75;4950986;28;96745;-78
2023/10/23 01:33:47;;;;;;;2.38;1.05;;;;;;;15.91;74.40;100970.03;4947946;28;101623;-78
2023/10/23 01:36:13;;;;;;;2.80;0.80;;;;;;;15.90;74.46;100970.97;4951551;28;98863;-78
2023/10/23 01:38:40;;;;;;;1.63;0.68;;;;;;;15.95;74.44;100979.59;4943174;28;96782;-78
2023/10/23 01:41:06;;;;;;;6.53;0.85;;;;;;;16.07;73.77;100975.41;4949050;28;97001;-78
2023/10/23 01:43:34;;;;;;;2.05;0.88;;;;;;;15.94;74.23;100983.22;4948838;28;99287;-78
2023/10/23 01:46:00;;;;;;;5.35;1.05;;;;;;;16.01;74.07;100979.28;4949141;28;99123;-78
2023/10/23 01:48:27;;;;;;;6.38;1.25;;;;;;;16.00;73.84;100982.88;4950598;28;96826;-78
2023/10/23 01:50:53;;;;;;;2.08;1.00;;;;;;;15.87;74.73;100977.34;4954447;28;97174;-77
2023/10/23 01:53:20;;;;;;;3.72;1.10;;;;;;;16.16;73.46;100977.56;4945357;28;99828;-77
2023/10/23 01:55:46;;;;;;;3.83;0.93;;;;;;;16.01;73.94;100979.28;4948703;28;97701;-78
2023/10/23 01:58:12;;;;;;;2.65;0.90;;;;;;;15.93;74.73;100978.81;4947551;28;96723;-78
2023/10/23 02:00:40;;;;;;;5.03;1.02;;;;;;;15.88;75.11;100979.06;4951546;28;96982;-78
2023/10/23 02:03:07;;;;;;;5.85;1.00;;;;;;;15.95;75.00;100979.59;4943290;28;98081;-77
2023/10/23 02:05:34;;;;;;;3.33;0.93;;;;;;;15.74;75.84;100978.09;4959435;28;99005;-77
2023/10/23 02:08:00;;;;;;;2.25;1.02;;;;;;;15.90;75.16;100981.66;4953764;28;97290;-77
2023/10/23 02:10:26;;;;;;;1.42;0.90;;;;;;;15.86;75.33;100980.09;4954188;28;96957;-78
2023/10/23 02:12:53;;;;;;;5.85;1.05;;;;;;;15.85;75.58;100978.38;4950505;28;99134;-78
2023/10/23 02:15:19;;;;;;;2.95;1.02;;;;;;;15.85;75.74;100976.56;4956488;28;98820;-78
2023/10/23 02:17:47;;;;;;;5.00;1.20;;;;;;;15.76;75.65;100989.50;4953972;28;98460;-77
2023/10/23 02:20:14;;;;;;;3.22;1.00;;;;;;;16.01;75.15;100989.09;4945863;28;97700;-78
2023/10/23 02:22:40;;;;;;;6.68;1.50;;;;;;;15.89;74.76;100980.78;4951745;28;98969;-78
2023/10/23 02:25:07;;;;;;;4.35;1.30;;;;;;;15.98;74.67;100979.44;4951505;28;99092;-78
2023/10/23 02:27:33;;;;;;;5.07;1.33;;;;;;;16.14;74.01;100979.47;4952937;28;96756;-77
2023/10/23 02:29:59;;;;;;;3.00;0.85;;;;;;;16.10;74.45;100988.56;4953946;28;96923;-77
2023/10/23 02:32:26;;;;;;;3.97;1.38;;;;;;;15.87;74.89;100992.50;4955329;28;97681;-78
2023/10/23 02:34:55;;;;;;;5.85;1.38;;;;;;;15.80;75.00;100993.75;4951655;28;99284;-78
2023/10/23 02:37:21;;;;;;;4.18;0.98;;;;;;;15.67;75.82;100998.00;4954214;28;97032;-78
2023/10/23 02:39:47;;;;;;;3.85;1.20;;;;;;;15.89;74.98;101003.91;4952410;28;97666;-78
2023/10/23 02:42:14;;;;;;;2.15;1.10;;;;;;;15.73;75.21;101011.00;4951338;28;98883;-77
2023/10/23 02:44:40;;;;;;;10.20;1.73;;;;;;;15.71;75.73;101005.75;4953764;28;98767;-77
2023/10/23 02:47:06;;;;;;;2.78;1.27;;;;;;;15.60;76.17;101013.44;4956688;28;97166;-77
2023/10/23 02:49:33;;;;;;;1.63;0.90;;;;;;;15.96;74.71;101018.63;4951961;28;96980;-77
2023/10/23 02:52:01;;;;;;;5.60;1.38;;;;;;;15.81;75.33;101016.78;4950840;28;99458;-77
2023/10/23 02:54:28;;;;;;;7.35;2.15;;;;;;;15.77;75.02;101021.41;4951009;28;102245;-77
2023/10/23 02:56:54;;;;;;;4.68;1.35;;;;;;;15.69;75.30;101022.75;4953941;28;97053;-77
2023/10/23 02:59:21;;;;;;;3.42;1.00;;;;;;;15.69;75.72;101022.75;4952094;28;97926;-77
2023/10/23 03:01:47;;;;;;;6.85;1.35;;;;;;;15.69;75.67;101028.06;4951147;28;99088;-77
2023/10/23 03:04:14;;;;;;;7.45;1.40;;;;;;;15.53;76.35;101033.34;4943985;28;98926;-77
2023/10/23 03:06:40;;;;;;;2.45;1.00;;;;;;;15.62;76.04;101019.53;4949799;28;97134;-77
2023/10/23 03:09:08;;;;;;;2.35;1.20;;;;;;;15.49;76.51;101023.78;4953513;28;96941;-76
2023/10/23 03:11:34;;;;;;;5.85;1.45;;;;;;;15.44;76.61;101031.97;4950280;28;99250;-76
2023/10/23 03:14:01;;;;;;;3.75;1.38;;;;;;;15.58;76.25;101031.28;4954016;28;99223;-77
2023/10/23 03:16:29;;;;;;;3.22;1.02;;;;;;;15.47;77.14;101031.84;4955835;28;96924;-77
2023/10/23 03:18:55;;;;;;;3.10;1.33;;;;;;;15.56;76.10;101035.00;4953432;28;96790;-77
2023/10/23 03:21:21;;;;;;;3.40;1.25;;;;;;;15.36;77.08;101038.66;4953808;28;99231;-77
2023/10/23 03:23:48;;;;;;;4.25;1.10;;;;;;;15.45;76.79;101032.84;4951462;28;97996;-77
2023/10/23 03:26:16;;;;;;;2.83;1.08;;;;;;;15.27;77.36;101036.44;4954144;28;96828;-77
2023/10/23 03:28:42;;;;;;;7.47;1.33;;;;;;;15.31;77.52;101033.53;4948200;28;97157;-77
2023/10/23 03:31:08;;;;;;;10.23;2.60;;;;;;;15.36;77.16;101039.47;4958288;28;98979;-77
2023/10/23 03:33:35;;;;;;;4.82;1.30;;;;;;;15.36;77.20;101039.47;4954456;28;98992;-78
2023/10/23 03:36:01;;;;;;;7.43;1.48;;;;;;;15.10;77.75;101040.78;4945954;28;96818;-78
2023/10/23 03:38:27;;;;;;;4.13;1.35;;;;;;;15.25;76.80;101030.31;4955103;28;96832;-78
2023/10/23 03:40:56;;;;;;;3.88;1.00;;;;;;;15.12;77.37;101035.41;4955050;28;98911;-77
2023/10/23 03:43:24;;;;;;;4.35;1.25;;;;;;;15.04;77.16;101041.09;4956083;28;101266;-77
2023/10/23 03:45:50;;;;;;;8.68;1.33;;;;;;;15.01;77.59;101027.09;4952935;28;96833;-77
2023/10/23 03:48:16;;;;;;;2.03;1.23;;;;;;;15.07;77.59;101038.28;4951779;28;96868;-78
2023/10/23 03:50:43;;;;;;;2.75;1.35;;;;;;;15.01;77.63;101035.06;4952298;28;97737;-78
2023/10/23 03:53:09;;;;;;;4.03;1.40;;;;;;;14.95;78.07;101036.25;4953317;28;97875;-78
2023/10/23 03:55:36;;;;;;;6.20;1.20;;;;;;;14.91;78.01;101033.78;4952046;28;97188;-77
2023/10/23 03:58:03;;;;;;;3.25;1.48;;;;;;;15.01;78.15;101032.41;4960870;28;97968;-77
2023/10/23 04:00:31;;;;;;;1.90;1.40;;;;;;;14.97;78.12;101036.13;4955623;28;99272;-78
2023/10/23 04:02:57;;;;;;;6.72;1.40;;;;;;;14.93;78.32;101043.44;4954750;28;99791;-78
2023/10/23 04:05:23;;;;;;;3.15;1.20;;;;;;;15.14;77.23;101049.50;4952291;28;98659;-79
2023/10/23 04:07:50;;;;;;;3.08;1.65;;;;;;;14.96;78.42;101051.28;4951853;28;96810;-79
2023/10/23 04:10:16;;;;;;;5.88;1.45;;;;;;;14.91;78.39;101057.72;4949756;28;102003;-79
2023/10/23 04:12:42;;;;;;;9.45;1.83;;;;;;;14.99;77.93;101055.56;4950899;28;99890;-79
2023/10/23 04:15:09;;;;;;;5.70;2.10;;;;;;;15.03;77.35;101054.50;4952826;28;97099;-78
2023/10/23 04:17:37;;;;;;;5.78;1.88;;;;;;;15.13;76.89;101053.09;4950952;28;97462;-77
2023/10/23 04:20:04;;;;;;;6.97;1.52;;;;;;;14.90;77.30;101056.88;4953712;28;97451;-77
2023/10/23 04:22:31;;;;;;;3.58;1.55;;;;;;;14.81;77.82;101059.13;4956883;28;99270;-78
2023/10/23 04:24:57;;;;;;;4.90;1.65;;;;;;;15.08;76.62;101071.09;4955348;28;97980;-79
2023/10/23 04:27:24;;;;;;;4.57;2.15;;;;;;;15.03;75.98;101063.31;4952594;28;96738;-79
2023/10/23 04:29:50;;;;;;;5.50;2.47;;;;;;;14.99;75.96;101066.22;4949518;28;99116;-79
2023/10/23 04:32:17;;;;;;;5.90;2.35;;;;;;;14.94;76.79;101071.75;4953123;28;98845;-79
2023/10/23 04:34:44;;;;;;;6.00;1.70;;;;;;;14.87;77.04;101072.13;4950533;28;97159;-78
2023/10/23 04:37:11;;;;;;;3.42;1.60;;;;;;;14.99;77.09;101083.03;4951623;28;97765;-78
2023/10/23 04:39:37;;;;;;;4.95;3.42;;;;;;;14.87;77.48;101080.97;4949052;28;101928;-78
2023/10/23 04:42:04;;;;;;;3.50;2.22;;;;;;;14.67;78.39;101076.59;4949970;28;102244;-78
2023/10/23 04:44:30;;;;;;;5.20;2.25;;;;;;;14.93;77.99;101078.00;4955511;28;97013;-78
2023/10/23 04:46:57;;;;;;;7.30;2.35;;;;;;;14.79;78.58;101079.59;4949836;28;97128;-78
2023/10/23 04:49:23;;;;;;;6.28;2.22;;;;;;;14.77;78.59;101085.84;4946799;28;98131;-78
2023/10/23 04:51:51;;;;;;;3.60;1.85;;;;;;;14.79;78.15;101085.78;4962268;28;99384;-78
2023/10/23 04:54:17;;;;;;;4.90;1.80;;;;;;;14.87;77.74;101088.97;4955795;28;97156;-78
2023/10/23 04:56:43;;;;;;;7.45;2.00;;;;;;;14.69;78.60;101082.72;4952909;28;96879;-78
2023/10/23 04:59:10;;;;;;;7.18;1.98;;;;;;;14.69;78.30;101088.03;4950294;28;99673;-78
2023/10/23 05:01:36;;;;;;;3.63;2.10;;;;;;;14.57;78.44;101093.06;4947723;28;99260;-78
2023/10/23 05:04:03;;;;;;;3.33;1.50;;;;;;;14.57;78.63;101096.56;4958267;28;96837;-78
2023/10/23 05:06:30;;;;;;;6.60;2.17;;;;;;;14.46;78.53;101098.88;4952781;28;97314;-78
2023/10/23 05:08:58;;;;;;;7.43;2.00;;;;;;;14.66;77.94;101101.47;4954934;28;100493;-77
2023/10/23 05:11:24;;;;;;;5.93;2.63;;;;;;;14.40;78.39;101099.16;4951762;28;98966;-77
2023/10/23 05:13:50;;;;;;;4.82;2.70;;;;;;;14.53;77.49;101091.47;4953693;28;97229;-76
2023/10/23 05:16:17;;;;;;;6.63;4.15;;;;;;;14.53;77.29;101095.00;4950286;28;97003;-79
2023/10/23 05:18:44;;;;;;;4.18;2.63;;;;;;;14.63;77.15;101103.41;4950995;28;97687;-79
2023/10/23 05:21:12;;;;;;;2.92;1.83;;;;;;;14.71;76.77;101103.91;4955469;28;98305;-76
2023/10/23 05:23:38;;;;;;;4.28;2.05;;;;;;;14.57;77.01;101096.56;4950772;28;97062;-77
2023/10/23 05:26:06;;;;;;;5.85;1.83;;;;;;;14.56;77.61;101096.66;4950335;28;96809;-77
2023/10/23 05:28:33;;;;;;;6.68;2.90;;;;;;;14.36;78.78;101098.41;4953250;28;98981;-77
2023/10/23 05:30:59;;;;;;;6.93;2.75;;;;;;;14.45;78.49;101106.91;4947704;28;100846;-78
2023/10/23 05:33:26;;;;;;;4.55;2.20;;;;;;;14.54;77.48;101110.03;4949973;28;96885;-78
2023/10/23 05:36:01;;;;;;;5.95;2.33;;;;;;;14.27;77.93;101106.78;4946687;28;98054;-77
2023/10/23 05:38:28;;;;;;;5.20;2.22;;;;;;;14.11;78.66;101104.91;4958522;28;99047;-78
2023/10/23 05:40:56;;;;;;;5.63;2.17;;;;;;;14.34;78.21;101107.38;4950309;28;98977;-78
2023/10/23 05:43:24;;;;;;;7.43;2.33;;;;;;;14.34;78.50;101113.56;4964071;28;96829;-78
2023/10/23 05:45:50;;;;;;;12.38;3.90;;;;;;;14.39;78.09;101113.38;4946773;28;96835;-78
2023/10/23 05:48:17;;;;;;;7.13;2.50;;;;;;;14.30;78.35;101113.78;4940065;28;99239;-78
2023/10/23 05:50:43;;;;;;;6.32;2.90;;;;;;;14.46;78.51;101119.28;4949346;28;99396;-78
2023/10/23 05:53:10;;;;;;;6.35;3.05;;;;;;;14.51;78.90;101125.22;4951241;28;98451;-79
2023/10/23 05:55:36;;;;;;;5.13;2.72;;;;;;;14.48;78.58;101126.25;4949259;28;97083;-77
2023/10/23 05:58:03;;;;;;;10.40;3.08;;;;;;;14.41;78.52;101126.59;4949352;28;99120;-77
2023/10/23 06:00:31;;;;;;;4.57;2.97;;;;;;;14.55;78.47;101138.34;4950463;28;99002;-78
2023/10/23 06:02:57;;;;;;;4.35;3.20;;;;;;;14.60;78.29;101141.66;4953279;28;97303;-78
2023/10/23 06:05:24;;;;;;;8.50;3.50;;;;;;;14.64;78.63;101134.38;4951288;28;96834;-78
2023/10/23 06:07:50;;;;;;;11.00;4.43;;;;;;;14.63;79.36;101136.19;4951397;28;98349;-78
2023/10/23 06:10:16;;;;;;;23.38;8.43;;;;;;;14.58;79.42;101140.84;4960913;28;97809;-78
2023/10/23 06:12:43;;;;;;;6.72;3.80;;;;;;;14.84;78.33;101142.28;4948343;28;97653;-78
2023/10/23 06:15:10;;;;;;;7.72;3.42;;;;;;;14.89;78.31;101134.97;4953144;28;97155;-78
2023/10/23 06:17:37;;;;;;;9.80;3.50;;;;;;;14.86;77.84;101142.22;4954429;28;99221;-79
2023/10/23 06:20:05;;;;;;;8.75;3.78;;;;;;;14.95;77.75;101149.78;4957904;28;99695;-79
2023/10/23 06:22:31;;;;;;;6.50;3.55;;;;;;;14.90;78.26;101152.66;4951119;28;98860;-79
2023/10/23 06:24:58;;;;;;;11.88;3.60;;;;;;;14.85;78.65;101157.31;4957508;28;96929;-78
2023/10/23 06:27:24;;;;;;;14.02;6.03;;;;;;;14.91;78.30;101158.84;4955021;28;98929;-79
2023/10/23 06:29:51;;;;;;;7.57;4.22;;;;;;;14.73;78.70;101160.56;4949039;28;98181;-78
2023/10/23 06:32:19;;;;;;;5.53;4.00;;;;;;;14.86;78.67;101163.50;4955955;28;100689;-80
2023/10/23 06:34:51;;;;;;;9.85;4.07;;;;;;;15.01;78.03;101176.13;4954869;28;98728;-77
2023/10/23 06:37:17;;;;;;;7.55;3.88;;;;;;;14.98;78.33;101166.47;4947217;28;98400;-79
2023/10/23 06:39:43;;;;;;;4.75;3.83;;;;;;;15.11;77.91;101164.09;4954014;28;97557;-79
2023/10/23 06:42:10;;;;;;;5.30;3.67;;;;;;;14.86;78.65;101166.19;4953785;28;96843;-79
2023/10/23 06:44:36;;;;;;;11.20;3.85;;;;;;;15.11;77.86;101167.63;4954408;28;98226;-78
2023/10/23 06:47:03;;;;;;;6.78;4.15;;;;;;;15.01;78.11;101176.13;4941689;28;98934;-79
2023/10/23 06:49:29;;;;;;;5.90;4.10;;;;;;;15.19;77.73;101169.03;4955102;28;100922;-80
2023/10/23 06:51:57;;;;;;;10.07;4.07;;;;;;;15.10;77.86;101171.19;4954478;28;97104;-78
2023/10/23 06:54:24;;;;;;;8.15;3.95;;;;;;;15.20;77.40;101165.47;4946475;28;97410;-78
2023/10/23 06:56:50;;;;;;;12.45;4.15;;;;;;;15.29;77.62;101165.88;4947313;28;98943;-78
2023/10/23 06:59:16;;;;;;;7.13;4.05;;;;;;;15.62;76.56;101170.53;4946551;28;101187;-78
2023/10/23 07:01:43;;;;;;;8.52;4.10;;;;;;;15.68;75.19;101155.09;4950872;28;97181;-80
2023/10/23 07:04:09;;;;;;;9.40;4.13;;;;;;;15.71;75.54;101156.72;4944849;28;98945;-79
2023/10/23 07:06:36;;;;;;;8.35;5.07;;;;;;;15.84;75.02;101157.84;4944370;28;101000;-79
2023/10/23 07:09:04;;;;;;;10.00;5.40;;;;;;;16.04;74.60;101154.16;4951155;28;100706;-79
2023/10/23 07:11:31;;;;;;;5.85;4.50;;;;;;;16.12;74.17;101151.97;4948254;28;97476;-80
2023/10/23 07:13:57;;;;;;;8.00;4.53;;;;;;;15.96;74.82;101151.88;4950789;28;98089;-78
2023/10/23 07:16:24;;;;;;;10.38;4.72;;;;;;;15.98;75.11;101158.00;4947453;28;98756;-77
2023/10/23 07:18:50;;;;;;;7.53;3.85;;;;;;;16.05;75.27;101156.75;4947928;28;98169;-79
2023/10/23 07:21:17;;;;;;;9.20;4.78;;;;;;;15.97;75.42;101164.28;4951316;28;96872;-77
2023/10/23 07:23:43;;;;;;;11.98;4.30;;;;;;;16.18;74.78;101168.50;4948158;28;98840;-79
2023/10/23 07:26:12;;;;;;;8.32;4.28;;;;;;;16.18;74.79;101176.50;4951439;28;99287;-78
2023/10/23 07:28:40;;;;;;;8.30;4.80;;;;;;;16.24;73.59;101183.31;4950154;28;98981;-78
2023/10/23 07:31:06;;;;;;;8.57;5.28;;;;;;;16.45;73.59;101184.00;4947753;28;97504;-78
2023/10/23 07:33:33;;;;;;;14.27;5.60;;;;;;;16.78;72.45;101190.25;4952315;28;96941;-78
2023/10/23 07:36:01;;;;;;;8.65;5.30;;;;;;;16.71;72.59;101186.19;4946007;28;99665;-79
2023/10/23 07:38:28;;;;;;;8.82;4.80;;;;;;;16.55;73.16;101185.22;4943234;28;98149;-77
2023/10/23 07:40:54;;;;;;;9.77;4.85;;;;;;;16.76;72.85;101192.13;4944449;28;97403;-80
2023/10/23 07:43:22;;;;;;;6.70;4.60;;;;;;;16.87;72.75;101189.72;4948488;28;97221;-78
2023/10/23 07:45:48;;;;;;;11.55;5.20;;;;;;;16.78;72.76;101197.38;4947178;28;99003;-79
2023/10/23 07:48:15;;;;;;;10.27;5.45;;;;;;;17.08;72.07;101198.38;4953018;28;99029;-79
2023/10/23 07:50:41;;;;;;;10.85;5.35;;;;;;;16.84;73.08;101200.59;4950130;28;97172;-78
2023/10/23 07:53:08;;;;;;;7.28;5.22;;;;;;;16.89;72.52;101201.19;4956454;28;97390;-79
2023/10/23 07:55:34;;;;;;;13.80;5.28;;;;;;;17.10;71.98;101202.69;4950415;28;100562;-79
2023/10/23 07:58:01;;;;;;;12.82;5.78;;;;;;;16.88;72.52;101204.78;4946571;28;98923;-79
2023/10/23 08:00:28;;;;;;;10.18;5.32;;;;;;;17.09;71.96;101211.63;4947436;28;99025;-78
2023/10/23 08:02:57;;;;;;;10.40;5.13;;;;;;;16.95;71.86;101210.66;4942227;28;97573;-80
2023/10/23 08:05:24;;;;;;;8.23;5.38;;;;;;;16.69;72.51;101215.59;4949443;28;99244;-78
2023/10/23 08:07:50;;;;;;;12.18;6.57;;;;;;;17.01;71.95;101216.53;4943971;28;98886;-79
2023/10/23 08:10:17;;;;;;;10.10;5.88;;;;;;;16.99;71.75;101215.78;4945359;28;97155;-81
2023/10/23 08:12:46;;;;;;;9.20;5.38;;;;;;;17.01;71.58;101213.00;4945919;28;97269;-79
2023/10/23 08:15:12;;;;;;;8.15;5.20;;;;;;;17.08;71.79;101215.25;4951202;28;99414;-78
2023/10/23 08:17:40;;;;;;;11.75;5.07;;;;;;;17.32;70.84;101215.72;4949184;28;99040;-78
2023/10/23 08:20:09;;;;;;;8.10;5.15;;;;;;;17.37;70.82;101216.31;4945118;28;97447;-77
2023/10/23 08:22:35;;;;;;;9.68;4.82;;;;;;;17.60;69.99;101220.34;4950554;28;97317;-82
2023/10/23 08:25:02;;;;;;;7.50;5.10;;;;;;;17.64;69.73;101213.91;4946867;28;97858;-81
2023/10/23 08:27:30;;;;;;;12.40;5.32;;;;;;;17.47;69.88;101214.81;4951435;28;98378;-80
2023/10/23 08:29:56;;;;;;;7.90;5.03;;;;;;;17.34;70.34;101223.63;4952919;28;96844;-81
2023/10/23 08:32:23;;;;;;;9.35;5.40;;;;;;;17.26;70.52;101218.72;4956606;28;98012;-80
2023/10/23 08:34:53;;;;;;;9.93;5.38;;;;;;;17.40;70.43;101220.59;4951462;28;99526;-80
2023/10/23 08:37:20;;;;;;;10.38;6.30;;;;;;;17.57;69.89;101222.34;4947502;28;99231;-81
2023/10/23 08:39:46;;;;;;;11.23;6.38;;;;;;;17.46;70.32;101223.78;4952916;28;96779;-81
2023/10/23 08:42:12;;;;;;;9.68;5.60;;;;;;;17.60;69.08;101223.00;4949271;28;96864;-83
2023/10/23 08:44:39;;;;;;;10.82;5.50;;;;;;;17.77;68.80;101220.28;4950607;28;98957;-82
2023/10/23 08:47:05;;;;;;;7.68;5.57;;;;;;;17.72;69.06;101217.00;4947529;28;99028;-82
2023/10/23 08:49:32;;;;;;;9.82;4.63;;;;;;;17.61;69.41;101226.56;4945978;28;97397;-80
2023/10/23 08:52:01;;;;;;;9.50;5.30;;;;;;;17.61;69.89;101222.09;4952363;28;97200;-82
2023/10/23 08:54:31;;;;;;;12.07;5.22;;;;;;;17.85;69.26;101222.53;4946899;28;99102;-80
2023/10/23 08:57:00;;;;;;;11.95;5.93;;;;;;;17.66;69.19;101228.03;4948475;28;102317;-80
2023/10/23 08:59:27;;;;;;;8.05;5.38;;;;;;;18.04;68.06;101225.84;4944332;28;97845;-79
2023/10/23 09:01:54;;;;;;;9.70;5.65;;;;;;;17.84;69.12;101227.00;4943826;28;97973;-80
2023/10/23 09:04:20;;;;;;;14.18;5.45;;;;;;;17.93;68.81;101222.91;4946977;28;99154;-78
2023/10/23 09:06:47;;;;;;;16.08;6.25;;;;;;;18.08;67.69;101221.16;4946102;28;98856;-78
2023/10/23 09:09:16;;;;;;;9.02;5.53;;;;;;;18.18;67.75;101220.50;4946459;28;98074;-79
2023/10/23 09:11:45;;;;;;;10.73;5.30;;;;;;;18.08;67.75;101219.34;4945017;28;97116;-79
2023/10/23 09:14:12;;;;;;;9.98;5.90;;;;;;;18.01;67.97;101217.13;4945857;28;98986;-79
2023/10/23 09:16:39;;;;;;;10.82;5.43;;;;;;;18.26;67.44;101214.69;4947172;28;99143;-80
2023/10/23 09:19:05;;;;;;;6.60;5.18;;;;;;;18.43;66.39;101221.72;4946382;28;97366;-80
2023/10/23 09:21:32;;;;;;;11.90;5.57;;;;;;;18.38;66.16;101216.63;4946064;28;98084;-79
2023/10/23 09:24:03;;;;;;;9.63;5.55;;;;;;;18.44;65.79;101226.13;4948888;28;97621;-81
2023/10/23 09:26:31;;;;;;;13.35;5.60;;;;;;;18.35;66.38;101216.84;4944855;28;97964;-80
2023/10/23 09:28:57;;;;;;;10.80;5.32;;;;;;;18.37;66.42;101220.28;4944717;28;96782;-78
2023/10/23 09:31:24;;;;;;;9.93;5.75;;;;;;;18.56;66.05;101217.38;4944504;28;99055;-78
2023/10/23 09:33:51;;;;;;;9.15;5.15;;;;;;;18.33;66.85;101214.25;4946493;28;99239;-79
2023/10/23 09:36:18;;;;;;;14.90;5.60;;;;;;;18.48;66.60;101212.47;4949526;28;98167;-80
2023/10/23 09:38:56;;;;;;;10.73;6.07;;;;;;;18.77;65.65;101215.22;4944129;28;97363;-79
2023/10/23 09:41:23;;;;;;;16.40;5.95;;;;;;;18.80;66.05;101210.50;4948784;28;96862;-79
2023/10/23 09:43:51;;;;;;;11.27;6.07;;;;;;;18.74;65.65;101212.69;4943318;28;101822;-79
2023/10/23 09:46:19;;;;;;;12.32;6.30;;;;;;;19.10;64.14;101215.75;4944352;28;99502;-79
2023/10/23 09:48:47;;;;;;;14.25;7.35;;;;;;;19.13;64.27;101212.88;4945568;28;97171;-80
2023/10/23 09:51:15;;;;;;;7.97;6.07;;;;;;;18.93;64.18;101213.28;4944277;28;97192;-79
2023/10/23 09:53:44;;;;;;;9.38;7.00;;;;;;;19.29;63.75;101221.69;4944378;28;99422;-80
2023/10/23 09:56:13;;;;;;;10.30;6.10;;;;;;;19.37;63.13;101210.44;4943756;28;97812;-78
2023/10/23 09:58:45;;;;;;;9.88;6.25;;;;;;;19.42;62.54;101206.53;4945784;28;96803;-79
2023/10/23 10:01:15;;;;;;;8.73;6.10;;;;;;;19.48;62.05;101203.47;4947126;28;97050;-79
2023/10/23 10:03:45;;;;;;;17.25;6.90;;;;;;;19.81;60.57;101199.53;4945633;28;99110;-73
2023/10/23 10:06:17;;;;;;;14.80;7.32;;;;;;;19.83;60.71;101203.81;4947642;28;99325;-74
2023/10/23 10:08:50;;;;;;;10.80;6.30;;;;;;;19.70;60.33;101207.41;4940771;28;97191;-74
2023/10/23 10:11:18;;;;;;;9.40;4.82;;;;;;;19.91;60.21;101205.97;4941931;28;97093;-74
2023/10/23 10:13:47;;;;;;;9.05;5.43;;;;;;;19.95;59.39;101204.84;4947181;28;99091;-74
2023/10/23 10:16:15;;;;;;;9.20;5.32;;;;;;;20.07;59.29;101189.72;4945373;28;98937;-73
2023/10/23 10:18:43;;;;;;;8.30;5.07;;;;;;;19.99;58.39;101195.59;4944492;28;100355;-74
2023/10/23 10:21:12;;;;;;;9.60;5.38;;;;;;;20.18;58.46;101196.06;4945654;28;96990;-74
2023/10/23 10:23:40;;;;;;;9.13;5.30;;;;;;;20.33;58.01;101196.88;4941518;28;99075;-73
2023/10/23 10:26:07;;;;;;;8.65;5.85;;;;;;;20.39;57.87;101193.78;4948515;28;99275;-74
2023/10/23 10:28:38;;;;;;;8.02;5.20;;;;;;;20.36;58.32;101193.09;4946527;28;97722;-73
2023/10/23 10:31:04;;;;;;;9.05;5.85;;;;;;;20.40;58.04;101192.81;4948823;28;96836;-73
2023/10/23 10:33:32;;;;;;;8.23;5.40;;;;;;;20.39;58.02;101192.91;4948285;28;98323;-73
2023/10/23 10:36:00;;;;;;;6.28;5.25;;;;;;;20.42;57.92;101192.69;4947273;28;98955;-74
2023/10/23 10:38:29;;;;;;;6.10;5.07;;;;;;;20.34;57.59;101190.56;4937965;28;97323;-73
2023/10/23 10:41:00;;;;;;;7.53;5.25;;;;;;;20.08;58.77;101194.13;4931010;28;98961;-73
2023/10/23 10:43:31;;;;;;;9.43;5.65;;;;;;;20.39;57.00;101185.72;4928750;28;99293;-73
2023/10/23 10:45:57;;;;;;;10.68;5.68;;;;;;;20.33;57.17;101187.97;4932783;28;98251;-75
2023/10/23 10:48:25;;;;;;;7.65;5.65;;;;;;;20.60;56.11;101189.59;4933202;28;97879;-74
2023/10/23 10:50:53;;;;;;;8.75;5.05;;;;;;;20.28;57.42;101188.25;4939736;28;97759;-74
2023/10/23 10:53:24;;;;;;;8.20;5.10;;;;;;;20.57;56.68;101187.13;4950008;28;98983;-74
2023/10/23 10:55:50;;;;;;;7.72;4.78;;;;;;;20.23;56.71;101188.56;4945594;28;98803;-80
2023/10/23 10:58:19;;;;;;;8.38;5.00;;;;;;;20.87;54.86;101173.31;4948135;28;97302;-80
2023/10/23 11:00:46;;;;;;;8.35;4.93;;;;;;;20.51;55.88;101171.44;4949394;28;100740;-80
2023/10/23 11:03:12;;;;;;;10.07;5.22;;;;;;;20.76;55.27;101169.69;4952460;28;99426;-82
2023/10/23 11:05:45;;;;;;;14.05;6.57;;;;;;;20.78;55.14;101174.00;4946931;28;98530;-80
2023/10/23 11:08:12;;;;;;;8.90;4.97;;;;;;;21.03;54.38;101170.41;4948328;28;97353;-81
2023/10/23 11:10:39;;;;;;;8.77;5.25;;;;;;;20.92;54.62;101168.50;4951586;28;97313;-80
2023/10/23 11:13:06;;;;;;;10.50;4.63;;;;;;;20.52;55.84;101162.44;4949222;28;98011;-79
2023/10/23 11:15:35;;;;;;;7.57;4.85;;;;;;;20.47;55.96;101159.22;4950652;28;98960;-80
2023/10/23 11:18:02;;;;;;;7.25;4.88;;;;;;;20.36;56.83;101163.59;4946048;28;97553;-78
2023/10/23 11:20:31;;;;;;;7.82;4.57;;;;;;;20.28;57.33;101158.75;4947128;28;97310;-79
2023/10/23 11:22:59;;;;;;;8.00;5.60;;;;;;;20.15;57.63;101160.56;4947256;28;98372;-80